sensor_id;sensor_type;location;lat;lon;timestamp;pressure;altitude;pressure_sealevel;temperature;humidity
59073;BME280;44859;51.934;15.554;2022-11-15T00:02:13;99844.02;;;3.88;100.00
59073;BME280;44859;51.934;15.554;2022-11-15T00:04:48;99840.86;;;3.89;100.00
59073;BME280;44859;51.934;15.554;2022-11-15T00:07:21;99839.98;;;3.89;100.00
59073;BME280;44859;51.934;15.554;2022-11-15T00:10:19;99836.39;;;3.95;100.00
59073;BME280;44859;51.934;15.554;2022-11-15T00:12:53;99833.86;;;4.01;100.00
59073;BME280;44859;51.934;15.554;2022-11-15T00:15:26;99831.52;;;4.05;100.00
59073;BME280;44859;51.934;15.554;2022-11-15T00:18:15;99830.75;;;4.08;100.00
59073;BME280;44859;51.934;15.554;2022-11-15T00:21:15;99832.23;;;4.12;100.00
59073;BME280;44859;51.934;15.554;2022-11-15T00:23:50;99823.46;;;4.15;100.00
59073;BME280;44859;51.934;15.554;2022-11-15T00:26:30;99818.27;;;4.14;100.00
59073;BME280;44859;51.934;15.554;2022-11-15T00:29:04;99816.86;;;4.15;100.00
59073;BME280;44859;51.934;15.554;2022-11-15T00:31:42;99820.49;;;4.16;100.00
59073;BME280;44859;51.934;15.554;2022-11-15T00:34:15;99822.59;;;4.16;100.00
59073;BME280;44859;51.934;15.554;2022-11-15T00:36:48;99821.99;;;4.19;100.00
59073;BME280;44859;51.934;15.554;2022-11-15T00:39:20;99821.50;;;4.25;100.00
59073;BME280;44859;51.934;15.554;2022-11-15T00:41:51;99818.54;;;4.33;100.00
59073;BME280;44859;51.934;15.554;2022-11-15T00:44:20;99817.67;;;4.41;100.00
59073;BME280;44859;51.934;15.554;2022-11-15T00:46:51;99814.14;;;4.51;100.00
59073;BME280;44859;51.934;15.554;2022-11-15T00:49:22;99812.31;;;4.62;100.00
59073;BME280;44859;51.934;15.554;2022-11-15T00:51:57;99811.94;;;4.77;100.00
59073;BME280;44859;51.934;15.554;2022-11-15T00:54:26;99811.11;;;4.90;100.00
59073;BME280;44859;51.934;15.554;2022-11-15T00:56:56;99807.92;;;4.98;100.00
59073;BME280;44859;51.934;15.554;2022-11-15T00:59:25;99806.49;;;5.08;100.00
59073;BME280;44859;51.934;15.554;2022-11-15T01:01:54;99805.10;;;5.14;100.00
59073;BME280;44859;51.934;15.554;2022-11-15T01:04:36;99801.19;;;5.23;100.00
59073;BME280;44859;51.934;15.554;2022-11-15T01:07:10;99796.45;;;5.31;100.00
59073;BME280;44859;51.934;15.554;2022-11-15T01:09:48;99795.89;;;5.39;100.00
59073;BME280;44859;51.934;15.554;2022-11-15T01:12:23;99793.24;;;5.47;100.00
59073;BME280;44859;51.934;15.554;2022-11-15T01:15:08;99788.10;;;5.50;100.00
59073;BME280;44859;51.934;15.554;2022-11-15T01:17:53;99790.89;;;5.56;100.00
59073;BME280;44859;51.934;15.554;2022-11-15T01:20:40;99784.30;;;5.61;100.00
59073;BME280;44859;51.934;15.554;2022-11-15T01:23:23;99782.52;;;5.63;100.00
59073;BME280;44859;51.934;15.554;2022-11-15T01:25:51;99780.31;;;5.67;100.00
59073;BME280;44859;51.934;15.554;2022-11-15T01:28:41;99774.76;;;5.72;100.00
59073;BME280;44859;51.934;15.554;2022-11-15T01:31:22;99777.00;;;5.73;100.00
59073;BME280;44859;51.934;15.554;2022-11-15T01:34:03;99776.48;;;5.73;100.00
59073;BME280;44859;51.934;15.554;2022-11-15T01:36:34;99771.98;;;5.78;100.00
59073;BME280;44859;51.934;15.554;2022-11-15T01:39:05;99771.42;;;5.85;100.00
59073;BME280;44859;51.934;15.554;2022-11-15T01:41:34;99766.31;;;5.93;100.00
59073;BME280;44859;51.934;15.554;2022-11-15T01:47:42;99756.23;;;6.16;99.79
59073;BME280;44859;51.934;15.554;2022-11-15T01:50:19;99755.19;;;6.21;99.28
59073;BME280;44859;51.934;15.554;2022-11-15T01:53:05;99752.77;;;6.26;99.01
59073;BME280;44859;51.934;15.554;2022-11-15T01:55:44;99748.84;;;6.29;98.67
59073;BME280;44859;51.934;15.554;2022-11-15T01:58:22;99747.33;;;6.33;98.38
59073;BME280;44859;51.934;15.554;2022-11-15T02:01:04;99742.75;;;6.39;97.89
59073;BME280;44859;51.934;15.554;2022-11-15T02:03:46;99741.13;;;6.46;97.89
59073;BME280;44859;51.934;15.554;2022-11-15T02:06:24;99740.40;;;6.53;97.72
59073;BME280;44859;51.934;15.554;2022-11-15T02:09:08;99734.54;;;6.61;96.92
59073;BME280;44859;51.934;15.554;2022-11-15T02:11:49;99726.57;;;6.65;97.19
59073;BME280;44859;51.934;15.554;2022-11-15T02:14:25;99722.63;;;6.63;97.09
59073;BME280;44859;51.934;15.554;2022-11-15T02:36:41;99709.81;;;6.28;95.94
59073;BME280;44859;51.934;15.554;2022-11-15T02:42:22;99703.14;;;6.19;96.46
59073;BME280;44859;51.934;15.554;2022-11-15T02:45:24;99700.48;;;6.14;96.42
59073;BME280;44859;51.934;15.554;2022-11-15T02:48:10;99699.98;;;6.08;96.00
59073;BME280;44859;51.934;15.554;2022-11-15T02:50:51;99701.34;;;6.03;96.10
59073;BME280;44859;51.934;15.554;2022-11-15T02:53:29;99701.52;;;5.98;96.57
59073;BME280;44859;51.934;15.554;2022-11-15T02:56:05;99696.55;;;5.94;96.23
59073;BME280;44859;51.934;15.554;2022-11-15T03:07:12;99697.56;;;5.67;96.16
59073;BME280;44859;51.934;15.554;2022-11-15T03:10:06;99692.80;;;5.57;96.13
59073;BME280;44859;51.934;15.554;2022-11-15T03:13:18;99687.05;;;5.51;96.63
59073;BME280;44859;51.934;15.554;2022-11-15T03:19:12;99684.26;;;5.33;96.44
59073;BME280;44859;51.934;15.554;2022-11-15T03:21:55;99688.81;;;5.20;96.23
59073;BME280;44859;51.934;15.554;2022-11-15T03:24:34;99689.92;;;5.12;96.30
59073;BME280;44859;51.934;15.554;2022-11-15T03:27:07;99686.98;;;5.04;96.29
59073;BME280;44859;51.934;15.554;2022-11-15T03:29:43;99688.81;;;5.01;96.55
59073;BME280;44859;51.934;15.554;2022-11-15T03:32:17;99684.02;;;4.98;96.62
59073;BME280;44859;51.934;15.554;2022-11-15T03:34:50;99687.34;;;4.98;96.74
59073;BME280;44859;51.934;15.554;2022-11-15T03:37:26;99683.02;;;4.97;96.86
59073;BME280;44859;51.934;15.554;2022-11-15T03:40:05;99682.09;;;4.99;97.06
59073;BME280;44859;51.934;15.554;2022-11-15T03:42:48;99675.69;;;5.04;96.99
59073;BME280;44859;51.934;15.554;2022-11-15T03:45:49;99673.14;;;5.08;97.04
59073;BME280;44859;51.934;15.554;2022-11-15T03:48:35;99672.55;;;5.11;97.02
59073;BME280;44859;51.934;15.554;2022-11-15T03:51:15;99673.18;;;5.13;97.21
59073;BME280;44859;51.934;15.554;2022-11-15T03:53:47;99670.52;;;5.14;97.14
59073;BME280;44859;51.934;15.554;2022-11-15T03:56:18;99671.08;;;5.13;97.11
59073;BME280;44859;51.934;15.554;2022-11-15T03:58:59;99668.90;;;5.17;97.33
59073;BME280;44859;51.934;15.554;2022-11-15T04:01:41;99672.54;;;5.35;97.43
59073;BME280;44859;51.934;15.554;2022-11-15T04:04:17;99671.24;;;5.37;97.22
59073;BME280;44859;51.934;15.554;2022-11-15T04:06:51;99671.87;;;5.40;97.22
59073;BME280;44859;51.934;15.554;2022-11-15T04:09:28;99670.48;;;5.46;97.28
59073;BME280;44859;51.934;15.554;2022-11-15T04:12:06;99669.74;;;5.47;97.05
59073;BME280;44859;51.934;15.554;2022-11-15T04:14:40;99666.86;;;5.50;97.17
59073;BME280;44859;51.934;15.554;2022-11-15T04:17:34;99665.89;;;5.54;97.11
59073;BME280;44859;51.934;15.554;2022-11-15T04:20:30;99663.36;;;5.57;97.28
59073;BME280;44859;51.934;15.554;2022-11-15T04:23:20;99661.70;;;5.60;96.98
59073;BME280;44859;51.934;15.554;2022-11-15T04:26:19;99658.38;;;5.60;96.99
59073;BME280;44859;51.934;15.554;2022-11-15T04:28:58;99654.05;;;5.59;97.05
59073;BME280;44859;51.934;15.554;2022-11-15T04:31:52;99651.73;;;5.61;96.93
59073;BME280;44859;51.934;15.554;2022-11-15T04:34:44;99647.81;;;5.64;96.92
59073;BME280;44859;51.934;15.554;2022-11-15T04:37:17;99648.77;;;5.67;97.09
59073;BME280;44859;51.934;15.554;2022-11-15T04:39:55;99649.83;;;5.66;96.47
59073;BME280;44859;51.934;15.554;2022-11-15T04:42:30;99647.24;;;5.65;96.73
59073;BME280;44859;51.934;15.554;2022-11-15T04:45:06;99643.76;;;5.65;96.80
59073;BME280;44859;51.934;15.554;2022-11-15T04:47:37;99644.32;;;5.64;96.97
59073;BME280;44859;51.934;15.554;2022-11-15T04:50:07;99644.34;;;5.64;96.71
59073;BME280;44859;51.934;15.554;2022-11-15T04:52:37;99645.07;;;5.62;96.76
59073;BME280;44859;51.934;15.554;2022-11-15T04:55:13;99643.00;;;5.62;96.77
59073;BME280;44859;51.934;15.554;2022-11-15T04:58:03;99641.50;;;5.60;96.66
59073;BME280;44859;51.934;15.554;2022-11-15T05:00:44;99640.55;;;5.57;96.68
59073;BME280;44859;51.934;15.554;2022-11-15T05:03:13;99641.70;;;5.53;96.69
59073;BME280;44859;51.934;15.554;2022-11-15T05:06:03;99634.69;;;5.48;96.89
59073;BME280;44859;51.934;15.554;2022-11-15T05:08:39;99629.21;;;5.46;97.05
59073;BME280;44859;51.934;15.554;2022-11-15T05:11:13;99626.82;;;5.44;96.84
59073;BME280;44859;51.934;15.554;2022-11-15T05:13:42;99626.47;;;5.44;96.89
59073;BME280;44859;51.934;15.554;2022-11-15T05:16:17;99626.70;;;5.42;97.00
59073;BME280;44859;51.934;15.554;2022-11-15T05:18:56;99629.45;;;5.37;96.52
59073;BME280;44859;51.934;15.554;2022-11-15T05:21:54;99633.51;;;5.35;96.93
59073;BME280;44859;51.934;15.554;2022-11-15T05:24:51;99634.26;;;5.34;96.93
59073;BME280;44859;51.934;15.554;2022-11-15T05:28:10;99635.33;;;5.33;96.83
59073;BME280;44859;51.934;15.554;2022-11-15T05:31:07;99631.58;;;5.30;96.96
59073;BME280;44859;51.934;15.554;2022-11-15T05:33:52;99629.05;;;5.27;96.99
59073;BME280;44859;51.934;15.554;2022-11-15T05:36:48;99624.08;;;5.26;97.10
59073;BME280;44859;51.934;15.554;2022-11-15T05:39:33;99625.66;;;5.25;97.01
59073;BME280;44859;51.934;15.554;2022-11-15T05:42:18;99625.83;;;5.25;97.32
59073;BME280;44859;51.934;15.554;2022-11-15T05:45:38;99625.67;;;5.24;97.31
59073;BME280;44859;51.934;15.554;2022-11-15T05:48:50;99624.69;;;5.22;97.31
59073;BME280;44859;51.934;15.554;2022-11-15T05:51:44;99627.55;;;5.19;97.20
59073;BME280;44859;51.934;15.554;2022-11-15T05:54:58;99625.95;;;5.20;97.32
59073;BME280;44859;51.934;15.554;2022-11-15T05:58:15;99622.10;;;5.21;97.12
59073;BME280;44859;51.934;15.554;2022-11-15T06:01:11;99623.50;;;5.21;97.25
59073;BME280;44859;51.934;15.554;2022-11-15T06:04:33;99624.11;;;5.24;97.50
59073;BME280;44859;51.934;15.554;2022-11-15T06:07:35;99621.48;;;5.24;97.38
59073;BME280;44859;51.934;15.554;2022-11-15T06:10:24;99623.71;;;5.26;97.32
59073;BME280;44859;51.934;15.554;2022-11-15T06:13:37;99624.14;;;5.29;97.60
59073;BME280;44859;51.934;15.554;2022-11-15T06:16:46;99623.24;;;5.30;97.19
59073;BME280;44859;51.934;15.554;2022-11-15T06:19:48;99620.48;;;5.29;97.12
59073;BME280;44859;51.934;15.554;2022-11-15T06:22:34;99622.79;;;5.27;97.26
59073;BME280;44859;51.934;15.554;2022-11-15T06:25:25;99623.13;;;5.28;97.36
59073;BME280;44859;51.934;15.554;2022-11-15T06:28:45;99622.91;;;5.29;97.36
59073;BME280;44859;51.934;15.554;2022-11-15T06:31:38;99624.13;;;5.29;97.28
59073;BME280;44859;51.934;15.554;2022-11-15T06:34:41;99626.56;;;5.29;97.22
59073;BME280;44859;51.934;15.554;2022-11-15T06:37:51;99636.81;;;5.30;97.04
59073;BME280;44859;51.934;15.554;2022-11-15T06:40:39;99634.81;;;5.33;97.41
59073;BME280;44859;51.934;15.554;2022-11-15T06:43:43;99636.50;;;5.35;97.17
59073;BME280;44859;51.934;15.554;2022-11-15T06:46:29;99638.15;;;5.37;97.47
59073;BME280;44859;51.934;15.554;2022-11-15T06:49:06;99640.30;;;5.41;97.26
59073;BME280;44859;51.934;15.554;2022-11-15T06:51:50;99638.29;;;5.45;97.32
59073;BME280;44859;51.934;15.554;2022-11-15T06:54:26;99638.62;;;5.51;97.22
59073;BME280;44859;51.934;15.554;2022-11-15T06:56:55;99640.58;;;5.55;97.16
59073;BME280;44859;51.934;15.554;2022-11-15T06:59:26;99642.21;;;5.59;97.06
59073;BME280;44859;51.934;15.554;2022-11-15T07:01:55;99641.59;;;5.62;97.26
59073;BME280;44859;51.934;15.554;2022-11-15T07:04:27;99639.92;;;5.66;97.17
59073;BME280;44859;51.934;15.554;2022-11-15T07:06:56;99639.14;;;5.68;96.78
59073;BME280;44859;51.934;15.554;2022-11-15T07:09:25;99639.83;;;5.69;96.88
59073;BME280;44859;51.934;15.554;2022-11-15T07:11:54;99642.35;;;5.71;96.68
59073;BME280;44859;51.934;15.554;2022-11-15T07:14:23;99641.75;;;5.74;96.85
59073;BME280;44859;51.934;15.554;2022-11-15T07:16:51;99637.16;;;5.76;96.58
59073;BME280;44859;51.934;15.554;2022-11-15T07:19:19;99634.17;;;5.77;96.42
59073;BME280;44859;51.934;15.554;2022-11-15T07:22:50;99637.95;;;5.79;96.42
59073;BME280;44859;51.934;15.554;2022-11-15T07:29:39;99639.98;;;5.86;96.02
59073;BME280;44859;51.934;15.554;2022-11-15T07:45:12;99639.34;;;6.01;95.33
59073;BME280;44859;51.934;15.554;2022-11-15T07:47:40;99634.22;;;6.04;95.37
59073;BME280;44859;51.934;15.554;2022-11-15T07:50:13;99630.07;;;6.08;95.32
59073;BME280;44859;51.934;15.554;2022-11-15T07:52:56;99631.46;;;6.14;95.10
59073;BME280;44859;51.934;15.554;2022-11-15T07:55:29;99629.46;;;6.16;95.35
59073;BME280;44859;51.934;15.554;2022-11-15T08:00:32;99627.61;;;6.19;95.26
59073;BME280;44859;51.934;15.554;2022-11-15T08:03:09;99627.19;;;6.22;95.08
59073;BME280;44859;51.934;15.554;2022-11-15T08:05:39;99625.51;;;6.25;94.66
59073;BME280;44859;51.934;15.554;2022-11-15T08:08:10;99627.80;;;6.29;94.58
59073;BME280;44859;51.934;15.554;2022-11-15T08:10:39;99625.72;;;6.34;94.24
59073;BME280;44859;51.934;15.554;2022-11-15T08:13:11;99625.55;;;6.38;94.30
59073;BME280;44859;51.934;15.554;2022-11-15T08:15:41;99619.67;;;6.42;94.20
59073;BME280;44859;51.934;15.554;2022-11-15T08:18:26;99615.71;;;6.46;94.12
59073;BME280;44859;51.934;15.554;2022-11-15T08:20:59;99610.50;;;6.51;93.86
59073;BME280;44859;51.934;15.554;2022-11-15T08:23:30;99606.48;;;6.56;93.86
59073;BME280;44859;51.934;15.554;2022-11-15T08:26:05;99605.23;;;6.61;93.89
59073;BME280;44859;51.934;15.554;2022-11-15T08:28:34;99601.56;;;6.66;93.75
59073;BME280;44859;51.934;15.554;2022-11-15T08:31:06;99604.17;;;6.72;93.36
59073;BME280;44859;51.934;15.554;2022-11-15T08:33:35;99609.08;;;6.76;93.36
59073;BME280;44859;51.934;15.554;2022-11-15T08:36:04;99602.14;;;6.80;93.32
59073;BME280;44859;51.934;15.554;2022-11-15T08:38:33;99601.54;;;6.87;92.64
59073;BME280;44859;51.934;15.554;2022-11-15T08:41:03;99601.71;;;6.91;92.43
59073;BME280;44859;51.934;15.554;2022-11-15T08:43:32;99605.52;;;6.97;92.34
59073;BME280;44859;51.934;15.554;2022-11-15T08:46:01;99603.27;;;7.01;92.39
59073;BME280;44859;51.934;15.554;2022-11-15T08:48:30;99604.05;;;7.04;92.04
59073;BME280;44859;51.934;15.554;2022-11-15T08:51:06;99605.67;;;7.07;91.72
59073;BME280;44859;51.934;15.554;2022-11-15T08:53:39;99600.80;;;7.11;91.44
59073;BME280;44859;51.934;15.554;2022-11-15T08:56:23;99597.52;;;7.15;91.40
59073;BME280;44859;51.934;15.554;2022-11-15T08:58:52;99594.57;;;7.19;91.20
59073;BME280;44859;51.934;15.554;2022-11-15T09:01:20;99594.59;;;7.23;90.76
59073;BME280;44859;51.934;15.554;2022-11-15T09:03:52;99594.02;;;7.29;90.63
59073;BME280;44859;51.934;15.554;2022-11-15T09:06:21;99593.29;;;7.34;90.64
59073;BME280;44859;51.934;15.554;2022-11-15T09:08:50;99591.25;;;7.42;90.73
59073;BME280;44859;51.934;15.554;2022-11-15T09:11:21;99596.52;;;7.50;90.55
59073;BME280;44859;51.934;15.554;2022-11-15T09:13:51;99596.02;;;7.59;90.48
59073;BME280;44859;51.934;15.554;2022-11-15T09:16:20;99592.77;;;7.66;90.30
59073;BME280;44859;51.934;15.554;2022-11-15T09:18:53;99593.05;;;7.76;89.97
59073;BME280;44859;51.934;15.554;2022-11-15T09:21:24;99592.88;;;7.85;89.78
59073;BME280;44859;51.934;15.554;2022-11-15T09:24:03;99592.67;;;7.94;89.73
59073;BME280;44859;51.934;15.554;2022-11-15T09:26:41;99590.21;;;8.03;89.25
59073;BME280;44859;51.934;15.554;2022-11-15T09:29:13;99585.91;;;8.10;88.97
59073;BME280;44859;51.934;15.554;2022-11-15T09:31:43;99589.23;;;8.18;89.21
59073;BME280;44859;51.934;15.554;2022-11-15T09:34:12;99585.48;;;8.24;88.42
59073;BME280;44859;51.934;15.554;2022-11-15T09:36:44;99589.85;;;8.28;88.13
59073;BME280;44859;51.934;15.554;2022-11-15T09:39:18;99584.05;;;8.33;87.72
59073;BME280;44859;51.934;15.554;2022-11-15T09:42:12;99579.38;;;8.36;87.36
59073;BME280;44859;51.934;15.554;2022-11-15T09:50:14;99574.26;;;8.50;86.78
59073;BME280;44859;51.934;15.554;2022-11-15T09:52:45;99572.02;;;8.57;86.21
59073;BME280;44859;51.934;15.554;2022-11-15T09:55:17;99570.96;;;8.65;86.22
59073;BME280;44859;51.934;15.554;2022-11-15T09:58:05;99569.49;;;8.75;86.68
59073;BME280;44859;51.934;15.554;2022-11-15T10:00:42;99564.71;;;8.84;86.33
59073;BME280;44859;51.934;15.554;2022-11-15T10:03:26;99560.14;;;8.92;86.11
59073;BME280;44859;51.934;15.554;2022-11-15T10:06:00;99559.71;;;8.97;85.83
59073;BME280;44859;51.934;15.554;2022-11-15T10:11:11;99555.55;;;9.19;85.78
59073;BME280;44859;51.934;15.554;2022-11-15T10:14:23;99554.55;;;9.29;85.33
59073;BME280;44859;51.934;15.554;2022-11-15T10:22:30;99542.98;;;9.52;84.58
59073;BME280;44859;51.934;15.554;2022-11-15T10:27:35;99540.31;;;9.56;83.89
59073;BME280;44859;51.934;15.554;2022-11-15T10:30:16;99542.13;;;9.62;83.94
59073;BME280;44859;51.934;15.554;2022-11-15T10:32:51;99542.14;;;9.69;83.55
59073;BME280;44859;51.934;15.554;2022-11-15T10:35:42;99533.39;;;9.76;83.47
59073;BME280;44859;51.934;15.554;2022-11-15T10:38:15;99527.27;;;9.79;83.07
59073;BME280;44859;51.934;15.554;2022-11-15T10:41:22;99526.10;;;9.82;83.49
59073;BME280;44859;51.934;15.554;2022-11-15T10:44:29;99519.88;;;9.86;83.71
59073;BME280;44859;51.934;15.554;2022-11-15T10:47:20;99518.18;;;9.89;83.29
59073;BME280;44859;51.934;15.554;2022-11-15T10:49:55;99516.52;;;9.94;83.23
59073;BME280;44859;51.934;15.554;2022-11-15T10:52:25;99516.10;;;9.99;83.10
59073;BME280;44859;51.934;15.554;2022-11-15T10:55:03;99511.14;;;10.07;82.82
59073;BME280;44859;51.934;15.554;2022-11-15T10:57:37;99504.00;;;10.13;82.59
59073;BME280;44859;51.934;15.554;2022-11-15T11:00:27;99504.34;;;10.20;82.84
59073;BME280;44859;51.934;15.554;2022-11-15T11:05:32;99501.29;;;10.35;82.08
59073;BME280;44859;51.934;15.554;2022-11-15T11:10:54;99495.80;;;10.50;81.81
59073;BME280;44859;51.934;15.554;2022-11-15T11:16:15;99490.48;;;10.60;81.30
59073;BME280;44859;51.934;15.554;2022-11-15T11:19:39;99488.65;;;10.65;81.23
59073;BME280;44859;51.934;15.554;2022-11-15T11:31:13;99478.13;;;10.84;81.16
59073;BME280;44859;51.934;15.554;2022-11-15T11:34:15;99473.65;;;10.89;80.83
59073;BME280;44859;51.934;15.554;2022-11-15T11:42:43;99459.23;;;11.09;79.91
59073;BME280;44859;51.934;15.554;2022-11-15T11:48:18;99450.41;;;11.19;80.20
59073;BME280;44859;51.934;15.554;2022-11-15T11:50:53;99445.49;;;11.22;79.77
59073;BME280;44859;51.934;15.554;2022-11-15T11:53:31;99444.52;;;11.24;79.73
59073;BME280;44859;51.934;15.554;2022-11-15T11:56:22;99439.99;;;11.29;79.16
59073;BME280;44859;51.934;15.554;2022-11-15T11:59:00;99435.95;;;11.35;79.15
59073;BME280;44859;51.934;15.554;2022-11-15T12:01:38;99437.45;;;11.39;79.03
59073;BME280;44859;51.934;15.554;2022-11-15T12:04:21;99436.77;;;11.45;78.80
59073;BME280;44859;51.934;15.554;2022-11-15T12:07:08;99432.39;;;11.51;78.64
59073;BME280;44859;51.934;15.554;2022-11-15T12:10:04;99430.32;;;11.56;77.91
59073;BME280;44859;51.934;15.554;2022-11-15T12:15:36;99425.70;;;11.63;77.72
59073;BME280;44859;51.934;15.554;2022-11-15T12:18:22;99420.96;;;11.63;77.70
59073;BME280;44859;51.934;15.554;2022-11-15T12:21:08;99424.27;;;11.63;77.31
59073;BME280;44859;51.934;15.554;2022-11-15T12:23:58;99427.42;;;11.66;77.42
59073;BME280;44859;51.934;15.554;2022-11-15T12:26:42;99424.27;;;11.66;77.74
59073;BME280;44859;51.934;15.554;2022-11-15T12:29:31;99420.23;;;11.66;78.03
59073;BME280;44859;51.934;15.554;2022-11-15T12:32:03;99416.98;;;11.64;78.59
59073;BME280;44859;51.934;15.554;2022-11-15T12:34:42;99413.48;;;11.70;78.76
59073;BME280;44859;51.934;15.554;2022-11-15T12:40:34;99404.17;;;11.82;79.16
59073;BME280;44859;51.934;15.554;2022-11-15T12:45:45;99407.13;;;11.79;79.31
59073;BME280;44859;51.934;15.554;2022-11-15T12:53:34;99400.90;;;11.81;79.69
59073;BME280;44859;51.934;15.554;2022-11-15T12:58:57;99395.98;;;11.80;79.75
59073;BME280;44859;51.934;15.554;2022-11-15T13:06:57;99391.09;;;11.80;80.44
59073;BME280;44859;51.934;15.554;2022-11-15T13:15:13;99377.17;;;11.63;80.76
59073;BME280;44859;51.934;15.554;2022-11-15T13:17:54;99375.16;;;11.61;80.85
59073;BME280;44859;51.934;15.554;2022-11-15T13:20:25;99378.88;;;11.58;80.95
59073;BME280;44859;51.934;15.554;2022-11-15T13:23:20;99373.89;;;11.56;81.20
59073;BME280;44859;51.934;15.554;2022-11-15T13:28:47;99367.19;;;11.53;81.42
59073;BME280;44859;51.934;15.554;2022-11-15T13:34:03;99362.03;;;11.54;81.50
59073;BME280;44859;51.934;15.554;2022-11-15T13:37:02;99362.26;;;11.56;81.59
59073;BME280;44859;51.934;15.554;2022-11-15T13:39:34;99363.60;;;11.66;81.68
59073;BME280;44859;51.934;15.554;2022-11-15T13:42:20;99360.80;;;11.96;82.23
59073;BME280;44859;51.934;15.554;2022-11-15T13:45:03;99358.05;;;12.37;81.72
59073;BME280;44859;51.934;15.554;2022-11-15T13:48:09;99354.84;;;12.79;80.72
59073;BME280;44859;51.934;15.554;2022-11-15T13:50:52;99354.30;;;13.04;79.64
59073;BME280;44859;51.934;15.554;2022-11-15T13:53:23;99356.67;;;13.21;78.79
59073;BME280;44859;51.934;15.554;2022-11-15T13:55:55;99355.38;;;13.30;77.97
59073;BME280;44859;51.934;15.554;2022-11-15T13:58:41;99353.79;;;13.49;77.29
59073;BME280;44859;51.934;15.554;2022-11-15T14:01:22;99350.00;;;13.64;76.63
59073;BME280;44859;51.934;15.554;2022-11-15T14:04:00;99341.05;;;13.76;75.99
59073;BME280;44859;51.934;15.554;2022-11-15T14:06:30;99338.98;;;13.78;75.41
59073;BME280;44859;51.934;15.554;2022-11-15T14:11:53;99340.63;;;13.48;74.60
59073;BME280;44859;51.934;15.554;2022-11-15T14:14:30;99337.59;;;13.25;74.48
59073;BME280;44859;51.934;15.554;2022-11-15T14:19:58;99346.45;;;12.62;74.59
59073;BME280;44859;51.934;15.554;2022-11-15T14:22:29;99348.14;;;12.32;74.70
59073;BME280;44859;51.934;15.554;2022-11-15T14:25:16;99349.99;;;12.08;74.70
59073;BME280;44859;51.934;15.554;2022-11-15T14:30:44;99349.29;;;11.53;75.48
59073;BME280;44859;51.934;15.554;2022-11-15T14:35:52;99342.88;;;11.12;76.20
59073;BME280;44859;51.934;15.554;2022-11-15T14:38:30;99342.02;;;10.97;76.58
59073;BME280;44859;51.934;15.554;2022-11-15T14:41:23;99343.39;;;10.82;77.10
59073;BME280;44859;51.934;15.554;2022-11-15T14:43:59;99338.48;;;10.69;77.41
59073;BME280;44859;51.934;15.554;2022-11-15T14:46:29;99334.55;;;10.58;77.81
59073;BME280;44859;51.934;15.554;2022-11-15T14:49:03;99337.54;;;10.45;78.27
59073;BME280;44859;51.934;15.554;2022-11-15T14:51:33;99330.06;;;10.34;78.65
59073;BME280;44859;51.934;15.554;2022-11-15T14:54:04;99325.23;;;10.22;79.24
59073;BME280;44859;51.934;15.554;2022-11-15T14:56:41;99318.08;;;10.12;79.49
59073;BME280;44859;51.934;15.554;2022-11-15T14:59:12;99322.02;;;10.03;79.48
59073;BME280;44859;51.934;15.554;2022-11-15T15:01:56;99319.46;;;9.96;79.67
59073;BME280;44859;51.934;15.554;2022-11-15T15:04:29;99324.98;;;9.87;80.23
59073;BME280;44859;51.934;15.554;2022-11-15T15:06:58;99326.63;;;9.80;80.22
59073;BME280;44859;51.934;15.554;2022-11-15T15:09:38;99326.77;;;9.70;80.30
59073;BME280;44859;51.934;15.554;2022-11-15T15:12:15;99328.26;;;9.58;80.55
59073;BME280;44859;51.934;15.554;2022-11-15T15:14:46;99326.52;;;9.45;81.16
59073;BME280;44859;51.934;15.554;2022-11-15T15:17:16;99326.40;;;9.33;81.30
59073;BME280;44859;51.934;15.554;2022-11-15T15:19:47;99325.04;;;9.22;81.71
59073;BME280;44859;51.934;15.554;2022-11-15T15:22:28;99321.58;;;9.11;81.53
59073;BME280;44859;51.934;15.554;2022-11-15T15:27:50;99308.17;;;8.95;82.57
59073;BME280;44859;51.934;15.554;2022-11-15T15:30:19;99304.92;;;8.93;82.73
59073;BME280;44859;51.934;15.554;2022-11-15T15:32:48;99303.05;;;8.92;83.19
59073;BME280;44859;51.934;15.554;2022-11-15T15:35:18;99302.92;;;8.91;83.31
59073;BME280;44859;51.934;15.554;2022-11-15T15:37:48;99300.31;;;8.91;83.75
59073;BME280;44859;51.934;15.554;2022-11-15T15:40:20;99296.16;;;8.90;84.33
59073;BME280;44859;51.934;15.554;2022-11-15T15:42:50;99296.72;;;8.89;84.48
59073;BME280;44859;51.934;15.554;2022-11-15T15:45:19;99295.01;;;8.89;84.28
59073;BME280;44859;51.934;15.554;2022-11-15T15:47:52;99293.86;;;8.87;84.51
59073;BME280;44859;51.934;15.554;2022-11-15T15:50:29;99290.28;;;8.81;84.76
59073;BME280;44859;51.934;15.554;2022-11-15T15:53:05;99286.93;;;8.78;85.08
59073;BME280;44859;51.934;15.554;2022-11-15T15:55:40;99287.51;;;8.77;85.24
59073;BME280;44859;51.934;15.554;2022-11-15T15:58:11;99283.63;;;8.78;85.23
59073;BME280;44859;51.934;15.554;2022-11-15T16:00:39;99284.33;;;8.78;85.57
59073;BME280;44859;51.934;15.554;2022-11-15T16:03:11;99288.14;;;8.79;85.53
59073;BME280;44859;51.934;15.554;2022-11-15T16:05:41;99293.69;;;8.76;85.58
59073;BME280;44859;51.934;15.554;2022-11-15T16:08:19;99295.05;;;8.73;85.95
59073;BME280;44859;51.934;15.554;2022-11-15T16:10:48;99291.20;;;8.66;85.90
59073;BME280;44859;51.934;15.554;2022-11-15T16:13:17;99288.41;;;8.55;85.43
59073;BME280;44859;51.934;15.554;2022-11-15T16:15:48;99292.89;;;8.45;85.89
59073;BME280;44859;51.934;15.554;2022-11-15T16:18:21;99296.92;;;8.30;85.99
59073;BME280;44859;51.934;15.554;2022-11-15T16:20:50;99297.80;;;8.11;86.02
59073;BME280;44859;51.934;15.554;2022-11-15T16:23:28;99293.66;;;7.94;86.08
59073;BME280;44859;51.934;15.554;2022-11-15T16:26:00;99288.48;;;7.81;86.45
59073;BME280;44859;51.934;15.554;2022-11-15T16:28:38;99289.37;;;7.70;86.57
59073;BME280;44859;51.934;15.554;2022-11-15T16:31:11;99287.86;;;7.56;86.76